createdAt,value
2018-12-31T00:00:09.912Z,102434.00
2018-12-31T00:02:40.101Z,102435.00
2018-12-31T00:05:09.726Z,102421.00
2018-12-31T00:07:39.139Z,102408.00
2018-12-31T00:10:09.356Z,102419.00
2018-12-31T00:12:38.743Z,102421.00
2018-12-31T00:15:09.248Z,102423.00
2018-12-31T00:17:38.619Z,102425.00
2018-12-31T00:20:08.259Z,102430.00
2018-12-31T00:22:38.054Z,102438.00
2018-12-31T00:25:07.687Z,102438.00
2018-12-31T00:27:37.067Z,102432.00
2018-12-31T00:30:07.653Z,102450.00
2018-12-31T00:32:37.025Z,102434.00
2018-12-31T00:35:06.409Z,102448.00
2018-12-31T00:37:36.058Z,102444.00
2018-12-31T00:40:06.079Z,102451.00
2018-12-31T00:42:35.445Z,102438.00
2018-12-31T00:45:05.788Z,102438.00
2018-12-31T00:47:35.156Z,102444.00
2018-12-31T00:50:05.186Z,102437.00
2018-12-31T00:52:34.587Z,102438.00
2018-12-31T00:55:03.966Z,102444.00
2018-12-31T00:57:33.372Z,102441.00
2018-12-31T01:00:02.847Z,102456.00
2018-12-31T01:02:32.226Z,102464.00
2018-12-31T01:05:01.606Z,102453.00
2018-12-31T01:07:31.598Z,102461.00
2018-12-31T01:10:01.049Z,102448.00
2018-12-31T01:12:30.417Z,102461.00
2018-12-31T01:14:59.824Z,102459.00
2018-12-31T01:17:29.200Z,102461.00
2018-12-31T01:19:58.570Z,102467.00
2018-12-31T01:22:27.981Z,102464.00
2018-12-31T01:24:57.355Z,102472.00
2018-12-31T01:27:26.742Z,102473.00
2018-12-31T01:29:56.141Z,102466.00
2018-12-31T01:32:25.515Z,102475.00
2018-12-31T01:34:54.889Z,102465.00
2018-12-31T01:37:24.289Z,102470.00
2018-12-31T01:39:53.662Z,102464.00
2018-12-31T01:42:23.047Z,102481.00
2018-12-31T01:44:52.448Z,102484.00
2018-12-31T01:47:21.826Z,102488.00
2018-12-31T01:49:51.205Z,102507.00
2018-12-31T01:52:20.909Z,102499.00
2018-12-31T01:54:50.280Z,102510.00
2018-12-31T01:57:19.662Z,102500.00
2018-12-31T01:59:49.069Z,102501.00
2018-12-31T02:02:18.449Z,102501.00
2018-12-31T02:04:47.867Z,102499.00
2018-12-31T02:07:17.263Z,102503.00
2018-12-31T02:09:46.957Z,102489.00
2018-12-31T02:12:16.347Z,102502.00
2018-12-31T02:14:46.196Z,102502.00
2018-12-31T02:17:15.572Z,102499.00
2018-12-31T02:19:44.954Z,102504.00
2018-12-31T02:22:14.460Z,102512.00
2018-12-31T02:24:43.838Z,102512.00
2018-12-31T02:27:13.215Z,102520.00
2018-12-31T02:29:42.631Z,102503.00
2018-12-31T02:32:12.010Z,102508.00
2018-12-31T02:34:41.414Z,102516.00
2018-12-31T02:37:11.336Z,102512.00
2018-12-31T02:39:41.020Z,102520.00
2018-12-31T02:42:10.394Z,102512.00
2018-12-31T02:44:39.791Z,102503.00
2018-12-31T02:47:09.170Z,102511.00
2018-12-31T02:49:38.543Z,102508.00
2018-12-31T02:52:07.940Z,102503.00
2018-12-31T02:54:37.321Z,102507.00
2018-12-31T02:57:06.797Z,102503.00
2018-12-31T02:59:36.653Z,102488.00
2018-12-31T03:02:06.028Z,102491.00
2018-12-31T03:04:35.403Z,102482.00
2018-12-31T03:07:05.126Z,102495.00
2018-12-31T03:09:34.754Z,102486.00
2018-12-31T03:12:04.772Z,102498.00
2018-12-31T03:14:34.180Z,102496.00
2018-12-31T03:17:03.572Z,102503.00
2018-12-31T03:19:33.298Z,102503.00
2018-12-31T03:22:02.992Z,102512.00
2018-12-31T03:24:32.366Z,102512.00
2018-12-31T03:27:01.744Z,102498.00
2018-12-31T03:29:31.136Z,102509.00
2018-12-31T03:32:00.518Z,102502.00
2018-12-31T03:34:29.898Z,102504.00
2018-12-31T03:36:59.287Z,102500.00
2018-12-31T03:39:28.667Z,102503.00
2018-12-31T03:41:58.040Z,102509.00
2018-12-31T03:44:27.776Z,102501.00
2018-12-31T03:46:57.448Z,102507.00
2018-12-31T03:49:26.818Z,102509.00
2018-12-31T03:51:56.230Z,102509.00
2018-12-31T03:54:25.617Z,102512.00
2018-12-31T03:56:55.258Z,102513.00
2018-12-31T03:59:24.648Z,102500.00
2018-12-31T04:01:54.045Z,102495.00
2018-12-31T04:04:23.414Z,102498.00
2018-12-31T04:06:52.819Z,102499.00
2018-12-31T04:09:22.203Z,102504.00
2018-12-31T04:11:51.577Z,102513.00
2018-12-31T04:14:21.222Z,102518.00
2018-12-31T04:16:50.594Z,102513.00
2018-12-31T04:19:19.967Z,102519.00
2018-12-31T04:21:49.711Z,102519.00
2018-12-31T04:24:19.081Z,102502.00
2018-12-31T04:26:48.459Z,102511.00
2018-12-31T04:29:18.156Z,102513.00
2018-12-31T04:31:47.532Z,102522.00
2018-12-31T04:34:16.905Z,102525.00
2018-12-31T04:36:46.313Z,102511.00
2018-12-31T04:39:15.687Z,102518.00
2018-12-31T04:41:45.068Z,102516.00
2018-12-31T04:44:14.447Z,102518.00
2018-12-31T04:46:43.830Z,102521.00
2018-12-31T04:49:13.203Z,102510.00
2018-12-31T04:51:42.607Z,102499.00
2018-12-31T04:54:11.984Z,102512.00
2018-12-31T04:56:41.352Z,102508.00
2018-12-31T04:59:10.782Z,102512.00
2018-12-31T05:01:40.120Z,102505.00
2018-12-31T05:04:09.499Z,102503.00
2018-12-31T05:06:39.157Z,102512.00
2018-12-31T05:09:08.533Z,102526.00
2018-12-31T05:11:37.907Z,102516.00
2018-12-31T05:14:07.583Z,102527.00
2018-12-31T05:16:36.991Z,102527.00
2018-12-31T05:19:06.368Z,102541.00
2018-12-31T05:21:35.751Z,102552.00
2018-12-31T05:24:05.129Z,102550.00
2018-12-31T05:26:34.502Z,102547.00
2018-12-31T05:29:04.191Z,102539.00
2018-12-31T05:31:33.567Z,102558.00
2018-12-31T05:34:02.942Z,102549.00
2018-12-31T05:36:32.552Z,102556.00
2018-12-31T05:39:01.924Z,102536.00
2018-12-31T05:41:31.299Z,102548.00
2018-12-31T05:44:00.701Z,102552.00
2018-12-31T05:46:30.065Z,102549.00
2018-12-31T05:48:59.437Z,102558.00
2018-12-31T05:51:28.838Z,102555.00
2018-12-31T05:53:58.218Z,102553.00
2018-12-31T05:56:27.591Z,102554.00
2018-12-31T05:58:57.010Z,102553.00
2018-12-31T06:01:26.385Z,102555.00
2018-12-31T06:03:55.757Z,102549.00
2018-12-31T06:06:25.139Z,102552.00
2018-12-31T06:08:54.519Z,102554.00
2018-12-31T06:11:23.901Z,102568.00
2018-12-31T06:13:53.289Z,102564.00
2018-12-31T06:16:22.661Z,102566.00
2018-12-31T06:18:52.480Z,102570.00
2018-12-31T06:21:22.213Z,102561.00
2018-12-31T06:23:51.596Z,102566.00
2018-12-31T06:26:21.280Z,102570.00
2018-12-31T06:28:50.682Z,102579.00
2018-12-31T06:31:20.062Z,102585.00
2018-12-31T06:33:49.453Z,102584.00
2018-12-31T06:36:18.854Z,102596.00
2018-12-31T06:38:48.218Z,102592.00
2018-12-31T06:41:17.601Z,102580.00
2018-12-31T06:43:47.340Z,102583.00
2018-12-31T06:46:16.732Z,102579.00
2018-12-31T06:48:46.421Z,102579.00
2018-12-31T06:51:15.810Z,102572.00
2018-12-31T06:53:45.193Z,102558.00
2018-12-31T06:56:14.574Z,102568.00
2018-12-31T06:58:44.002Z,102570.00
2018-12-31T07:01:13.421Z,102572.00
2018-12-31T07:03:42.789Z,102576.00
2018-12-31T07:06:12.550Z,102576.00
2018-12-31T07:08:42.303Z,102588.00
2018-12-31T07:11:11.682Z,102568.00
2018-12-31T07:13:41.081Z,102584.00
2018-12-31T07:16:10.468Z,102585.00
2018-12-31T07:18:39.851Z,102582.00
2018-12-31T07:21:09.515Z,102582.00
2018-12-31T07:23:38.913Z,102600.00
2018-12-31T07:26:09.958Z,102586.00
2018-12-31T07:28:39.566Z,102597.00
2018-12-31T07:31:08.951Z,102601.00
2018-12-31T07:33:38.334Z,102609.00
2018-12-31T07:36:07.742Z,102610.00
2018-12-31T07:38:37.133Z,102621.00
2018-12-31T07:41:06.515Z,102618.00
2018-12-31T07:43:35.923Z,102623.00
2018-12-31T07:46:05.334Z,102619.00
2018-12-31T07:48:34.724Z,102623.00
2018-12-31T07:51:04.566Z,102627.00
2018-12-31T07:53:33.960Z,102629.00
2018-12-31T07:56:03.413Z,102619.00
2018-12-31T07:58:33.110Z,102618.00
2018-12-31T08:01:02.495Z,102623.00
2018-12-31T08:03:31.865Z,102625.00
2018-12-31T08:06:01.258Z,102626.00
2018-12-31T08:08:30.637Z,102618.00
2018-12-31T08:11:00.019Z,102619.00
2018-12-31T08:13:29.442Z,102622.00
2018-12-31T08:15:58.827Z,102646.00
2018-12-31T08:18:28.206Z,102639.00
2018-12-31T08:20:57.605Z,102628.00
2018-12-31T08:23:27.446Z,102630.00
2018-12-31T08:25:56.859Z,102634.00
2018-12-31T08:28:26.661Z,102641.00
2018-12-31T08:30:56.068Z,102628.00
2018-12-31T08:33:25.452Z,102630.00
2018-12-31T08:35:55.300Z,102639.00
2018-12-31T08:38:24.703Z,102641.00
2018-12-31T08:40:54.223Z,102646.00
2018-12-31T08:43:23.571Z,102651.00
2018-12-31T08:45:53.004Z,102634.00
2018-12-31T08:48:22.430Z,102628.00
2018-12-31T08:50:52.098Z,102638.00
2018-12-31T08:53:21.469Z,102639.00
2018-12-31T08:55:50.862Z,102631.00
2018-12-31T08:58:20.320Z,102634.00
2018-12-31T09:00:49.947Z,102634.00
2018-12-31T09:03:19.329Z,102630.00
2018-12-31T09:05:48.733Z,102616.00
2018-12-31T09:08:18.116Z,102624.00
2018-12-31T09:10:47.497Z,102628.00
2018-12-31T09:13:16.888Z,102621.00
2018-12-31T09:15:46.332Z,102626.00
2018-12-31T09:18:15.955Z,102626.00
2018-12-31T09:20:46.223Z,102623.00
2018-12-31T09:23:15.605Z,102618.00
2018-12-31T09:25:45.906Z,102602.00
2018-12-31T09:28:15.321Z,102614.00
2018-12-31T09:30:44.711Z,102609.00
2018-12-31T09:33:14.103Z,102624.00
2018-12-31T09:35:43.524Z,102609.00
2018-12-31T09:38:12.909Z,102606.00
2018-12-31T09:40:42.283Z,102621.00
2018-12-31T09:43:11.948Z,102617.00
2018-12-31T09:45:41.338Z,102614.00
2018-12-31T09:48:10.753Z,102628.00
2018-12-31T09:50:40.144Z,102630.00
2018-12-31T09:53:09.530Z,102622.00
2018-12-31T09:55:38.941Z,102616.00
2018-12-31T09:58:08.332Z,102611.00
2018-12-31T10:00:37.713Z,102615.00
2018-12-31T10:03:07.097Z,102614.00
2018-12-31T10:05:36.874Z,102613.00
2018-12-31T10:08:06.253Z,102613.00
2018-12-31T10:10:35.640Z,102611.00
2018-12-31T10:13:05.105Z,102614.00
2018-12-31T10:15:34.481Z,102613.00
2018-12-31T10:18:03.867Z,102620.00
2018-12-31T10:20:33.256Z,102624.00
2018-12-31T10:23:02.661Z,102622.00
2018-12-31T10:25:32.116Z,102621.00
2018-12-31T10:28:02.492Z,102626.00
2018-12-31T10:30:31.791Z,102619.00
2018-12-31T10:33:01.169Z,102611.00
2018-12-31T10:35:30.562Z,102607.00
2018-12-31T10:38:00.177Z,102615.00
2018-12-31T10:40:29.560Z,102607.00
2018-12-31T10:42:58.974Z,102611.00
2018-12-31T10:45:28.363Z,102611.00
2018-12-31T10:47:57.745Z,102612.00
2018-12-31T10:50:27.385Z,102608.00
2018-12-31T10:52:56.837Z,102612.00
2018-12-31T10:55:26.213Z,102605.00
2018-12-31T10:57:55.602Z,102603.00
2018-12-31T11:00:24.999Z,102604.00
2018-12-31T11:02:54.377Z,102602.00
2018-12-31T11:05:23.767Z,102586.00
2018-12-31T11:07:53.160Z,102582.00
2018-12-31T11:10:22.543Z,102589.00
2018-12-31T11:12:51.959Z,102587.00
2018-12-31T11:15:21.363Z,102588.00
2018-12-31T11:17:50.735Z,102587.00
2018-12-31T11:20:20.153Z,102579.00
2018-12-31T11:22:49.540Z,102572.00
2018-12-31T11:25:18.915Z,102573.00
2018-12-31T11:27:48.318Z,102569.00
2018-12-31T11:30:18.385Z,102567.00
2018-12-31T11:32:47.758Z,102569.00
2018-12-31T11:35:17.462Z,102574.00
2018-12-31T11:37:46.886Z,102573.00
2018-12-31T11:40:16.224Z,102583.00
2018-12-31T11:42:45.666Z,102575.00
2018-12-31T11:45:14.992Z,102577.00
2018-12-31T11:47:44.371Z,102570.00
2018-12-31T11:50:13.782Z,102569.00
2018-12-31T11:52:43.255Z,102563.00
2018-12-31T11:55:12.638Z,102563.00
2018-12-31T11:57:42.581Z,102556.00
2018-12-31T12:00:11.958Z,102561.00
2018-12-31T12:02:41.343Z,102561.00
2018-12-31T12:05:10.739Z,102569.00
2018-12-31T12:07:40.170Z,102561.00
2018-12-31T12:10:09.650Z,102570.00
2018-12-31T12:12:39.046Z,102562.00
2018-12-31T12:15:09.060Z,102553.00
2018-12-31T12:17:38.432Z,102548.00
2018-12-31T12:20:09.143Z,102553.00
2018-12-31T12:22:38.518Z,102555.00
2018-12-31T12:25:08.223Z,102537.00
2018-12-31T12:27:37.616Z,102537.00
2018-12-31T12:30:09.251Z,102536.00
2018-12-31T12:32:40.078Z,102545.00
2018-12-31T12:35:09.446Z,102546.00
2018-12-31T12:37:38.828Z,102547.00
2018-12-31T12:40:09.339Z,102551.00
2018-12-31T12:42:38.810Z,102545.00
2018-12-31T12:45:09.515Z,102538.00
2018-12-31T12:47:38.866Z,102544.00
2018-12-31T12:50:09.091Z,102529.00
2018-12-31T12:52:38.476Z,102527.00
2018-12-31T12:55:08.099Z,102532.00
2018-12-31T12:57:37.513Z,102527.00
2018-12-31T13:00:07.520Z,102523.00
2018-12-31T13:02:36.893Z,102526.00
2018-12-31T13:05:06.548Z,102535.00
2018-12-31T13:07:36.306Z,102530.00
2018-12-31T13:10:07.036Z,102534.00
2018-12-31T13:12:36.813Z,102526.00
2018-12-31T13:15:07.054Z,102522.00
2018-12-31T13:17:36.463Z,102521.00
2018-12-31T13:20:06.312Z,102522.00
2018-12-31T13:22:35.683Z,102528.00
2018-12-31T13:25:05.461Z,102541.00
2018-12-31T13:27:35.109Z,102537.00
2018-12-31T13:30:05.523Z,102552.00
2018-12-31T13:32:34.918Z,102545.00
2018-12-31T13:35:04.609Z,102550.00
2018-12-31T13:37:33.982Z,102543.00
2018-12-31T13:40:03.358Z,102520.00
2018-12-31T13:42:32.755Z,102520.00
2018-12-31T13:45:02.135Z,102527.00
2018-12-31T13:47:31.532Z,102540.00
2018-12-31T13:50:00.944Z,102533.00
2018-12-31T13:52:30.408Z,102538.00
2018-12-31T13:55:00.166Z,102537.00
2018-12-31T13:57:29.568Z,102536.00
2018-12-31T13:59:58.941Z,102536.00
2018-12-31T14:02:28.323Z,102531.00
2018-12-31T14:04:57.806Z,102534.00
2018-12-31T14:07:28.359Z,102530.00
2018-12-31T14:09:57.730Z,102539.00
2018-12-31T14:12:27.333Z,102541.00
2018-12-31T14:14:56.717Z,102535.00
2018-12-31T14:17:26.101Z,102536.00
2018-12-31T14:19:55.515Z,102530.00
2018-12-31T14:22:24.897Z,102539.00
2018-12-31T14:24:54.350Z,102541.00
2018-12-31T14:27:24.016Z,102540.00
2018-12-31T14:29:53.388Z,102535.00
2018-12-31T14:32:22.771Z,102545.00
2018-12-31T14:34:52.346Z,102535.00
2018-12-31T14:37:23.001Z,102541.00
2018-12-31T14:39:52.377Z,102532.00
2018-12-31T14:42:22.147Z,102529.00
2018-12-31T14:44:51.526Z,102533.00
2018-12-31T14:47:20.913Z,102525.00
2018-12-31T14:49:50.298Z,102532.00
2018-12-31T14:52:19.671Z,102543.00
2018-12-31T14:54:49.338Z,102530.00
2018-12-31T14:57:19.050Z,102533.00
2018-12-31T14:59:48.428Z,102531.00
2018-12-31T15:02:17.817Z,102533.00
2018-12-31T15:04:47.211Z,102530.00
2018-12-31T15:07:16.599Z,102536.00
2018-12-31T15:09:45.972Z,102534.00
2018-12-31T15:12:15.368Z,102540.00
2018-12-31T15:14:44.740Z,102538.00
2018-12-31T15:17:14.434Z,102536.00
2018-12-31T15:19:44.119Z,102532.00
2018-12-31T15:22:13.498Z,102527.00
2018-12-31T15:24:43.152Z,102529.00
2018-12-31T15:27:12.555Z,102524.00
2018-12-31T15:29:41.929Z,102527.00
2018-12-31T15:32:11.317Z,102519.00
2018-12-31T15:34:40.714Z,102530.00
2018-12-31T15:37:10.087Z,102517.00
2018-12-31T15:39:40.520Z,102523.00
2018-12-31T15:42:10.454Z,102529.00
2018-12-31T15:44:39.834Z,102525.00
2018-12-31T15:47:09.342Z,102520.00
2018-12-31T15:49:38.714Z,102520.00
2018-12-31T15:52:08.110Z,102521.00
2018-12-31T15:54:37.765Z,102511.00
2018-12-31T15:57:07.187Z,102518.00
2018-12-31T15:59:36.567Z,102521.00
2018-12-31T16:02:05.956Z,102510.00
2018-12-31T16:04:35.657Z,102509.00
2018-12-31T16:07:05.417Z,102500.00
2018-12-31T16:09:34.805Z,102504.00
2018-12-31T16:12:04.210Z,102509.00
2018-12-31T16:14:33.586Z,102498.00
2018-12-31T16:17:02.978Z,102504.00
2018-12-31T16:19:32.679Z,102508.00
2018-12-31T16:22:02.070Z,102505.00
2018-12-31T16:24:31.442Z,102502.00
2018-12-31T16:27:01.139Z,102503.00
2018-12-31T16:29:30.546Z,102494.00
2018-12-31T16:32:00.319Z,102490.00
2018-12-31T16:34:29.713Z,102493.00
2018-12-31T16:36:59.125Z,102490.00
2018-12-31T16:39:28.485Z,102485.00
2018-12-31T16:41:58.784Z,102474.00
2018-12-31T16:44:28.187Z,102488.00
2018-12-31T16:46:57.563Z,102475.00
2018-12-31T16:49:27.008Z,102473.00
2018-12-31T16:52:02.632Z,102469.00
2018-12-31T16:54:27.581Z,102477.00
2018-12-31T16:56:56.975Z,102476.00
2018-12-31T16:59:26.364Z,102465.00
2018-12-31T17:01:55.747Z,102467.00
2018-12-31T17:04:25.142Z,102466.00
2018-12-31T17:06:54.535Z,102475.00
2018-12-31T17:09:23.918Z,102478.00
2018-12-31T17:11:53.379Z,102482.00
2018-12-31T17:14:22.764Z,102489.00
2018-12-31T17:16:52.157Z,102476.00
2018-12-31T17:19:21.560Z,102471.00
2018-12-31T17:21:50.946Z,102474.00
2018-12-31T17:24:20.325Z,102474.00
2018-12-31T17:26:49.729Z,102471.00
2018-12-31T17:29:19.188Z,102472.00
2018-12-31T17:31:48.584Z,102475.00
2018-12-31T17:34:18.000Z,102461.00
2018-12-31T17:36:47.390Z,102462.00
2018-12-31T17:39:16.802Z,102462.00
2018-12-31T17:41:46.175Z,102451.00
2018-12-31T17:44:16.992Z,102457.00
2018-12-31T17:46:46.375Z,102449.00
2018-12-31T17:49:15.767Z,102449.00
2018-12-31T17:51:45.153Z,102465.00
2018-12-31T17:54:14.810Z,102454.00
2018-12-31T17:56:44.774Z,102445.00
2018-12-31T17:59:14.178Z,102447.00
2018-12-31T18:01:43.566Z,102450.00
2018-12-31T18:04:12.973Z,102446.00
2018-12-31T18:06:43.471Z,102445.00
2018-12-31T18:09:13.348Z,102434.00
2018-12-31T18:11:42.754Z,102430.00
2018-12-31T18:14:12.138Z,102430.00
2018-12-31T18:16:41.525Z,102430.00
2018-12-31T18:19:11.039Z,102421.00
2018-12-31T18:21:40.657Z,102426.00
2018-12-31T18:24:10.028Z,102418.00
2018-12-31T18:26:39.424Z,102425.00
2018-12-31T18:29:08.808Z,102437.00
2018-12-31T18:31:38.208Z,102442.00
2018-12-31T18:34:07.786Z,102438.00
2018-12-31T18:36:37.176Z,102450.00
2018-12-31T18:39:07.701Z,102442.00
2018-12-31T18:41:37.871Z,102441.00
2018-12-31T18:44:07.250Z,102439.00
2018-12-31T18:46:37.339Z,102446.00
2018-12-31T18:49:06.997Z,102447.00
2018-12-31T18:51:36.385Z,102442.00
2018-12-31T18:54:05.781Z,102446.00
2018-12-31T18:56:35.187Z,102446.00
2018-12-31T18:59:04.573Z,102442.00
2018-12-31T19:01:33.969Z,102440.00
2018-12-31T19:04:03.402Z,102447.00
2018-12-31T19:06:32.783Z,102442.00
2018-12-31T19:09:02.173Z,102436.00
2018-12-31T19:11:31.574Z,102431.00
2018-12-31T19:14:00.973Z,102435.00
2018-12-31T19:16:30.707Z,102418.00
2018-12-31T19:19:00.558Z,102437.00
2018-12-31T19:21:30.268Z,102444.00
2018-12-31T19:23:59.651Z,102436.00
2018-12-31T19:26:29.087Z,102439.00
2018-12-31T19:28:58.471Z,102432.00
2018-12-31T19:31:27.853Z,102432.00
2018-12-31T19:33:57.276Z,102420.00
2018-12-31T19:36:26.670Z,102423.00
2018-12-31T19:38:56.051Z,102423.00
2018-12-31T19:41:25.462Z,102426.00
2018-12-31T19:43:54.844Z,102415.00
2018-12-31T19:46:24.235Z,102409.00
2018-12-31T19:48:54.355Z,102411.00
2018-12-31T19:51:23.762Z,102409.00
2018-12-31T19:53:53.140Z,102412.00
2018-12-31T19:56:22.547Z,102414.00
2018-12-31T19:58:51.935Z,102409.00
2018-12-31T20:01:21.331Z,102410.00
2018-12-31T20:03:51.008Z,102403.00
2018-12-31T20:06:20.395Z,102403.00
2018-12-31T20:08:49.792Z,102394.00
2018-12-31T20:11:19.699Z,102403.00
2018-12-31T20:13:49.085Z,102393.00
2018-12-31T20:16:18.465Z,102399.00
2018-12-31T20:18:47.867Z,102383.00
2018-12-31T20:21:17.268Z,102387.00
2018-12-31T20:23:46.653Z,102386.00
2018-12-31T20:26:16.384Z,102375.00
2018-12-31T20:28:45.833Z,102369.00
2018-12-31T20:31:15.219Z,102375.00
2018-12-31T20:33:45.147Z,102362.00
2018-12-31T20:36:14.557Z,102359.00
2018-12-31T20:38:44.218Z,102369.00
2018-12-31T20:41:13.622Z,102360.00
2018-12-31T20:43:43.003Z,102363.00
2018-12-31T20:46:12.475Z,102360.00
2018-12-31T20:48:41.874Z,102360.00
2018-12-31T20:51:11.950Z,102357.00
2018-12-31T20:53:41.335Z,102360.00
2018-12-31T20:56:11.214Z,102353.00
2018-12-31T20:58:40.590Z,102348.00
2018-12-31T21:01:09.993Z,102341.00
2018-12-31T21:03:39.394Z,102342.00
2018-12-31T21:06:08.785Z,102341.00
2018-12-31T21:08:38.160Z,102333.00
2018-12-31T21:11:07.566Z,102340.00
2018-12-31T21:13:36.947Z,102332.00
2018-12-31T21:16:06.330Z,102330.00
2018-12-31T21:18:37.319Z,102313.00
2018-12-31T21:21:06.892Z,102326.00
2018-12-31T21:23:36.286Z,102325.00
2018-12-31T21:26:05.735Z,102323.00
2018-12-31T21:28:35.111Z,102313.00
2018-12-31T21:31:04.494Z,102308.00
2018-12-31T21:33:33.879Z,102299.00
2018-12-31T21:36:03.562Z,102294.00
2018-12-31T21:38:32.946Z,102299.00
2018-12-31T21:41:02.613Z,102290.00
2018-12-31T21:43:32.273Z,102290.00
2018-12-31T21:46:01.666Z,102284.00
2018-12-31T21:48:31.048Z,102272.00
2018-12-31T21:51:00.516Z,102275.00
2018-12-31T21:53:31.053Z,102266.00
2018-12-31T21:56:00.492Z,102270.00
2018-12-31T21:58:29.845Z,102278.00
2018-12-31T22:00:59.245Z,102279.00
2018-12-31T22:03:28.975Z,102273.00
2018-12-31T22:05:58.400Z,102269.00
2018-12-31T22:08:27.772Z,102268.00
2018-12-31T22:10:57.171Z,102255.00
2018-12-31T22:13:26.561Z,102263.00
2018-12-31T22:15:56.252Z,102253.00
2018-12-31T22:18:25.963Z,102246.00
2018-12-31T22:20:55.353Z,102251.00
2018-12-31T22:23:24.729Z,102244.00
2018-12-31T22:25:54.521Z,102252.00
2018-12-31T22:28:23.909Z,102244.00
2018-12-31T22:30:53.306Z,102237.00
2018-12-31T22:33:22.691Z,102241.00
2018-12-31T22:35:52.092Z,102240.00
2018-12-31T22:38:21.461Z,102236.00
2018-12-31T22:40:50.864Z,102226.00
2018-12-31T22:43:20.240Z,102238.00
2018-12-31T22:45:49.629Z,102232.00
2018-12-31T22:48:19.457Z,102224.00
2018-12-31T22:50:48.837Z,102211.00
2018-12-31T22:53:18.217Z,102217.00
2018-12-31T22:55:48.695Z,102207.00
2018-12-31T22:58:18.174Z,102205.00
2018-12-31T23:00:48.769Z,102212.00
2018-12-31T23:03:18.173Z,102195.00
2018-12-31T23:05:47.590Z,102194.00
2018-12-31T23:08:17.331Z,102184.00
2018-12-31T23:10:46.769Z,102187.00
2018-12-31T23:13:16.152Z,102184.00
2018-12-31T23:15:47.427Z,102178.00
2018-12-31T23:18:16.906Z,102180.00
2018-12-31T23:20:46.385Z,102168.00
2018-12-31T23:23:15.766Z,102162.00
2018-12-31T23:25:45.190Z,102156.00
2018-12-31T23:28:14.572Z,102161.00
2018-12-31T23:30:43.979Z,102146.00
2018-12-31T23:33:13.566Z,102139.00
2018-12-31T23:35:42.976Z,102131.00
2018-12-31T23:38:12.358Z,102129.00
2018-12-31T23:40:41.801Z,102131.00
2018-12-31T23:43:11.167Z,102129.00
2018-12-31T23:45:40.868Z,102130.00
2018-12-31T23:48:10.257Z,102120.00
2018-12-31T23:50:39.657Z,102117.00
2018-12-31T23:53:09.036Z,102117.00
2018-12-31T23:55:38.954Z,102119.00
2018-12-31T23:58:08.558Z,102115.00
